Pomfret, Maryland
Current Conditions -  °F | °C
As of 2:58 AM on Saturday 20 Dec 2014 (Local Time) from KDAA Reporting Station
Clear Clear  
Wind Chill: 22°   Ceiling: Unl
Heat Index: 22°   Visibility: 10mi
Dew Point: 20°   Wind: 1mph
Humidity: 91%   Direction: 10°N
Pressure: 30.28"   Gusts: NA
Location:  38.58°N, 77.03°W
Report Text: KDAA 200758Z AUTO 01001KT 10SM CLR M05/M07 A3028 RMK AO2 SLP258 T10551067
Loading
Personal Weather Stations






























Interactive Weather Map New forecast layout! Learn more

10-Day Weather Forecast

Advertisements
Track Severe Weather on mobile